Time;durP1;ratioP1;P1;durP2;ratioP2;P2;SDS_P1;SDS_P2;PMS_P1;PMS_P2;Temp;Humidity;BMP_temperature;BMP_pressure;BME280_temperature;BME280_humidity;BME280_pressure;Samples;Min_cycle;Max_cycle;Signal;HPM_P1;HPM_P2
2022/09/16 00:01:13;;;;;;;4.30;1.83;;;12.70;99.90;;;;;;5019096;28;20480;-79
2022/09/16 00:03:39;;;;;;;8.32;2.03;;;12.70;99.90;;;;;;5045043;28;20040;-80
2022/09/16 00:06:05;;;;;;;6.05;1.67;;;12.70;99.90;;;;;;5044934;28;20039;-79
2022/09/16 00:08:31;;;;;;;7.85;2.65;;;12.70;99.90;;;;;;5044667;28;20438;-80
2022/09/16 00:11:01;;;;;;;8.68;2.15;;;12.80;99.90;;;;;;5038147;28;20041;-80
2022/09/16 00:13:28;;;;;;;6.10;1.95;;;12.80;99.90;;;;;;5040034;28;20037;-80
2022/09/16 00:15:53;;;;;;;6.80;1.77;;;12.80;99.90;;;;;;5019448;28;20045;-79
2022/09/16 00:18:19;;;;;;;7.07;1.70;;;12.90;99.90;;;;;;5041077;28;20041;-80
2022/09/16 00:20:49;;;;;;;6.68;1.73;;;12.80;99.90;;;;;;5022660;28;20056;-80
2022/09/16 00:23:15;;;;;;;7.50;1.95;;;12.80;99.90;;;;;;5034922;28;20044;-79
2022/09/16 00:25:41;;;;;;;6.65;1.83;;;12.80;99.90;;;;;;5037564;28;20090;-80
2022/09/16 00:28:07;;;;;;;6.40;1.85;;;12.80;99.90;;;;;;5023700;28;20049;-80
2022/09/16 00:30:33;;;;;;;7.50;1.83;;;12.80;99.90;;;;;;5024732;28;20088;-80
2022/09/16 00:32:58;;;;;;;8.20;1.90;;;12.80;99.90;;;;;;5022886;28;20052;-80
2022/09/16 00:35:24;;;;;;;5.75;1.80;;;12.80;99.90;;;;;;5022724;28;20048;-80
2022/09/16 00:37:49;;;;;;;4.93;1.85;;;12.80;99.90;;;;;;5042510;28;20042;-80
2022/09/16 00:40:15;;;;;;;4.57;1.83;;;12.80;99.90;;;;;;5019958;28;20135;-80
2022/09/16 00:42:41;;;;;;;6.82;2.00;;;12.80;99.90;;;;;;5023046;28;20045;-80
2022/09/16 00:45:19;;;;;;;5.25;1.60;;;12.80;99.90;;;;;;5042122;28;20317;-80
2022/09/16 00:48:08;;;;;;;4.85;1.90;;;12.80;99.90;;;;;;5022812;28;20049;-80
2022/09/16 00:50:43;;;;;;;3.90;1.70;;;12.80;99.90;;;;;;5038076;28;20151;-81
2022/09/16 00:53:14;;;;;;;4.53;1.60;;;12.80;99.90;;;;;;5033214;28;20223;-80
2022/09/16 00:55:40;;;;;;;5.95;1.73;;;12.80;99.90;;;;;;5041298;28;20060;-79
2022/09/16 00:58:19;;;;;;;5.78;2.08;;;12.80;99.90;;;;;;5035715;28;20045;-79
2022/09/16 01:00:45;;;;;;;5.32;1.80;;;12.70;99.90;;;;;;5018941;28;20049;-79
2022/09/16 01:03:11;;;;;;;6.15;1.95;;;12.70;99.90;;;;;;5022637;28;20853;-80
2022/09/16 01:05:37;;;;;;;5.43;2.00;;;12.80;99.90;;;;;;5024067;28;20048;-79
2022/09/16 01:08:04;;;;;;;7.77;1.83;;;12.80;99.90;;;;;;5022076;28;20454;-79
2022/09/16 01:10:30;;;;;;;4.60;1.80;;;12.80;99.90;;;;;;5018895;28;20037;-79
2022/09/16 01:13:03;;;;;;;4.13;1.63;;;12.80;99.90;;;;;;5036236;28;20037;-79
2022/09/16 01:15:51;;;;;;;4.53;1.80;;;12.80;99.90;;;;;;5030166;28;20049;-80
2022/09/16 01:18:24;;;;;;;5.95;1.90;;;12.80;99.90;;;;;;5026566;28;20077;-79
2022/09/16 01:21:08;;;;;;;5.68;1.80;;;12.80;99.90;;;;;;5035676;28;20047;-79
2022/09/16 01:23:51;;;;;;;5.40;2.13;;;12.80;99.90;;;;;;5042439;28;20045;-79
2022/09/16 01:26:48;;;;;;;7.97;2.10;;;12.80;99.90;;;;;;5038429;28;20041;-78
2022/09/16 01:29:35;;;;;;;5.82;2.13;;;12.70;99.90;;;;;;5021066;28;20082;-79
2022/09/16 01:32:23;;;;;;;6.95;2.22;;;12.70;99.90;;;;;;5032661;28;20566;-79
2022/09/16 01:35:01;;;;;;;6.10;1.80;;;12.70;99.90;;;;;;5039451;28;20041;-79
2022/09/16 01:37:49;;;;;;;6.20;1.95;;;12.70;99.90;;;;;;5019193;28;20060;-78
2022/09/16 01:40:18;;;;;;;6.57;1.90;;;12.70;99.90;;;;;;5021544;28;20388;-79
2022/09/16 01:42:53;;;;;;;6.70;1.67;;;12.70;99.90;;;;;;5014068;28;20492;-78
2022/09/16 01:45:45;;;;;;;4.47;1.50;;;12.70;99.90;;;;;;5042164;28;20101;-79
2022/09/16 01:48:11;;;;;;;4.78;1.42;;;12.70;99.90;;;;;;5021142;28;20085;-79
2022/09/16 01:50:56;;;;;;;4.38;1.38;;;12.70;99.90;;;;;;5034131;28;20127;-78
2022/09/16 01:53:31;;;;;;;5.07;1.40;;;12.70;99.90;;;;;;5037675;28;20037;-78
2022/09/16 01:56:07;;;;;;;5.50;1.40;;;12.70;99.90;;;;;;5040441;28;20044;-79
2022/09/16 01:58:56;;;;;;;3.90;1.60;;;12.70;99.90;;;;;;5041681;28;20532;-79
2022/09/16 02:01:33;;;;;;;6.70;2.00;;;12.70;99.90;;;;;;5017185;28;20156;-79
2022/09/16 02:04:04;;;;;;;6.43;2.05;;;12.70;99.90;;;;;;5035013;28;20045;-79
2022/09/16 02:06:30;;;;;;;7.45;1.92;;;12.60;99.90;;;;;;5041092;28;20045;-78
2022/09/16 02:09:05;;;;;;;3.92;1.63;;;12.60;99.90;;;;;;5040188;28;20037;-78
2022/09/16 02:11:31;;;;;;;6.30;2.00;;;12.60;99.90;;;;;;5050487;28;20032;-78
2022/09/16 02:14:07;;;;;;;5.80;1.80;;;12.60;99.90;;;;;;5033940;28;20032;-79
2022/09/16 02:16:39;;;;;;;6.13;1.70;;;12.60;99.90;;;;;;5037750;28;20033;-78
2022/09/16 02:19:13;;;;;;;7.43;1.80;;;12.60;99.90;;;;;;5043850;28;20190;-79
2022/09/16 02:21:40;;;;;;;7.57;1.60;;;12.60;99.90;;;;;;5021057;28;20136;-79
2022/09/16 02:24:12;;;;;;;7.30;1.40;;;12.60;99.90;;;;;;5019766;28;20075;-79
2022/09/16 02:26:43;;;;;;;5.68;1.50;;;12.60;99.90;;;;;;5041949;28;20045;-78
2022/09/16 02:29:16;;;;;;;7.18;1.85;;;12.60;99.90;;;;;;5019762;28;20072;-78
2022/09/16 02:31:43;;;;;;;4.63;1.40;;;12.60;99.90;;;;;;5036689;28;20045;-78
2022/09/16 02:34:17;;;;;;;5.63;1.60;;;12.60;99.90;;;;;;5025326;28;20402;-77
2022/09/16 02:36:46;;;;;;;5.50;1.40;;;12.50;99.90;;;;;;5022408;28;20045;-79
2022/09/16 02:39:16;;;;;;;6.45;1.70;;;12.50;99.90;;;;;;5036043;28;20102;-78
2022/09/16 02:41:42;;;;;;;4.85;1.60;;;12.50;99.90;;;;;;5022025;28;20080;-79
2022/09/16 02:44:09;;;;;;;5.57;1.73;;;12.60;99.90;;;;;;5040051;28;20131;-79
2022/09/16 02:47:02;;;;;;;7.38;1.77;;;12.50;99.90;;;;;;5032618;28;20049;-78
2022/09/16 02:50:01;;;;;;;4.95;1.30;;;12.50;99.90;;;;;;5039599;28;20457;-79
2022/09/16 02:52:50;;;;;;;5.95;1.52;;;12.50;99.90;;;;;;5040001;28;20077;-78
2022/09/16 02:55:19;;;;;;;8.18;1.75;;;12.60;99.90;;;;;;5037024;28;20041;-79
2022/09/16 02:57:45;;;;;;;7.03;1.55;;;12.50;99.90;;;;;;5022432;28;20044;-78
2022/09/16 03:00:11;;;;;;;6.57;1.73;;;12.50;99.90;;;;;;5020550;28;20052;-78
2022/09/16 03:02:37;;;;;;;5.38;1.40;;;12.50;99.90;;;;;;5018624;28;20033;-78
2022/09/16 03:05:04;;;;;;;5.90;1.90;;;12.50;99.90;;;;;;5025183;28;20072;-79
2022/09/16 03:07:30;;;;;;;7.68;1.70;;;12.50;99.90;;;;;;5014972;28;20053;-79
2022/09/16 03:09:56;;;;;;;7.40;1.70;;;12.50;99.90;;;;;;5018200;28;21142;-79
2022/09/16 03:12:43;;;;;;;5.03;1.48;;;12.50;99.90;;;;;;5036854;28;20032;-78
2022/09/16 03:15:32;;;;;;;5.43;1.55;;;12.50;99.90;;;;;;5037730;28;20079;-79
2022/09/16 03:18:23;;;;;;;5.22;1.42;;;12.50;99.90;;;;;;5039566;28;20049;-79
2022/09/16 03:21:03;;;;;;;5.85;1.40;;;12.40;99.90;;;;;;5025556;28;20133;-79
2022/09/16 03:23:53;;;;;;;7.07;1.38;;;12.30;99.90;;;;;;5037387;28;20099;-79
2022/09/16 03:26:40;;;;;;;7.55;1.45;;;12.30;99.90;;;;;;5045553;28;20123;-79
2022/09/16 03:29:17;;;;;;;;;;;12.30;99.90;;;;;;5021962;28;20166;-79
2022/09/16 03:32:14;;;;;;;4.57;1.33;;;12.30;99.90;;;;;;5042338;28;19921;-79
2022/09/16 03:34:52;;;;;;;8.35;1.58;;;12.40;99.90;;;;;;5042361;28;20076;-79
2022/09/16 03:37:20;;;;;;;6.22;1.45;;;12.40;99.90;;;;;;5040357;28;20102;-79
2022/09/16 03:39:54;;;;;;;7.47;1.73;;;12.40;99.90;;;;;;5020871;28;20619;-79
2022/09/16 03:42:21;;;;;;;5.07;1.50;;;12.40;99.90;;;;;;5038482;28;20599;-79
2022/09/16 03:44:47;;;;;;;3.63;1.23;;;12.30;99.90;;;;;;5039135;28;20040;-79
2022/09/16 03:47:13;;;;;;;6.20;1.73;;;12.30;99.90;;;;;;5017979;28;20088;-80
2022/09/16 03:49:39;;;;;;;8.40;1.75;;;12.40;99.90;;;;;;5024745;28;20041;-80
2022/09/16 03:52:06;;;;;;;4.80;1.27;;;12.40;99.90;;;;;;5025089;28;20052;-80
2022/09/16 03:54:32;;;;;;;3.40;1.55;;;12.30;99.90;;;;;;5043151;28;20112;-80
2022/09/16 03:56:59;;;;;;;6.65;2.25;;;12.30;99.90;;;;;;5041081;28;20300;-80
2022/09/16 03:59:26;;;;;;;5.47;1.65;;;12.40;99.90;;;;;;5022734;28;20075;-81
2022/09/16 04:01:52;;;;;;;5.18;1.52;;;12.30;99.90;;;;;;5021094;28;20045;-80
2022/09/16 04:04:17;;;;;;;4.30;1.30;;;12.30;99.90;;;;;;5026967;28;20345;-80
2022/09/16 04:06:43;;;;;;;5.22;1.70;;;12.30;99.90;;;;;;5040734;28;20079;-80
2022/09/16 04:09:11;;;;;;;8.43;1.80;;;12.30;99.90;;;;;;5024639;28;20045;-80
2022/09/16 04:11:37;;;;;;;6.25;1.60;;;12.40;99.90;;;;;;5044068;28;20036;-81
2022/09/16 04:14:06;;;;;;;6.35;1.77;;;12.40;99.90;;;;;;5039965;28;20029;-80
2022/09/16 04:16:32;;;;;;;6.97;1.90;;;12.30;99.90;;;;;;5040538;28;20502;-80
2022/09/16 04:18:58;;;;;;;5.88;1.63;;;12.30;99.90;;;;;;5042632;28;20148;-80
2022/09/16 04:21:24;;;;;;;4.35;1.70;;;12.30;99.90;;;;;;5022087;28;20065;-80
2022/09/16 04:23:51;;;;;;;5.68;1.70;;;12.30;99.90;;;;;;5041023;28;20064;-80
2022/09/16 04:26:16;;;;;;;6.35;1.52;;;12.20;99.90;;;;;;5042921;28;20116;-80
2022/09/16 04:28:42;;;;;;;5.18;1.30;;;12.20;99.90;;;;;;5019581;28;20123;-80
2022/09/16 04:31:13;;;;;;;4.40;1.25;;;12.10;99.90;;;;;;5043282;28;20053;-80
2022/09/16 04:33:39;;;;;;;5.95;1.40;;;12.10;99.90;;;;;;5022741;28;20405;-81
2022/09/16 04:36:13;;;;;;;4.93;1.60;;;12.10;99.90;;;;;;5042932;28;20120;-80
2022/09/16 04:38:41;;;;;;;5.38;1.30;;;12.00;99.90;;;;;;5014368;28;20081;-80
2022/09/16 04:41:17;;;;;;;;;;;12.00;99.90;;;;;;5044330;28;20045;-80
2022/09/16 04:43:43;;;;;;;7.63;1.52;;;11.90;99.90;;;;;;5024559;28;19920;-80
2022/09/16 04:46:10;;;;;;;5.70;1.50;;;12.00;99.90;;;;;;5021837;28;20053;-80
2022/09/16 04:48:36;;;;;;;5.85;1.42;;;11.90;99.90;;;;;;5018034;28;20044;-80
2022/09/16 04:51:03;;;;;;;5.45;1.55;;;11.90;99.90;;;;;;5039527;28;20041;-79
2022/09/16 04:53:29;;;;;;;5.93;1.40;;;11.90;99.90;;;;;;5023681;28;20041;-80
2022/09/16 04:56:08;;;;;;;3.92;1.30;;;11.90;99.90;;;;;;5038262;28;20044;-80
2022/09/16 04:58:34;;;;;;;5.00;1.60;;;11.90;99.90;;;;;;5043378;28;20044;-80
2022/09/16 05:01:11;;;;;;;6.47;1.88;;;11.90;99.90;;;;;;5042653;28;20069;-80
2022/09/16 05:03:38;;;;;;;6.03;1.80;;;11.90;99.90;;;;;;5047427;28;20050;-80
2022/09/16 05:06:12;;;;;;;6.05;1.90;;;11.80;99.90;;;;;;5025636;28;20068;-81
2022/09/16 05:08:38;;;;;;;5.80;1.75;;;11.80;99.90;;;;;;5025489;28;20049;-80
2022/09/16 05:11:26;;;;;;;4.45;1.77;;;11.80;99.90;;;;;;5022710;28;20088;-80
2022/09/16 05:13:53;;;;;;;6.43;2.15;;;11.80;99.90;;;;;;5019290;28;20048;-80
2022/09/16 05:16:21;;;;;;;6.35;2.00;;;11.90;99.90;;;;;;5024803;28;20059;-76
2022/09/16 05:18:49;;;;;;;5.30;2.08;;;11.80;99.90;;;;;;5040912;28;20285;-77
2022/09/16 05:21:17;;;;;;;6.90;2.20;;;11.80;99.90;;;;;;5040045;28;20037;-80
2022/09/16 05:23:44;;;;;;;5.18;2.13;;;11.90;99.90;;;;;;5021784;28;20488;-81
2022/09/16 05:26:13;;;;;;;7.13;2.03;;;11.80;99.90;;;;;;5041679;28;20099;-81
2022/09/16 05:28:38;;;;;;;7.72;2.33;;;11.80;99.90;;;;;;5020456;28;20049;-80
2022/09/16 05:31:16;;;;;;;8.50;2.20;;;11.80;99.90;;;;;;5040472;28;20110;-82
2022/09/16 05:34:03;;;;;;;5.75;2.28;;;11.80;99.90;;;;;;5041560;28;20455;-82
2022/09/16 05:36:37;;;;;;;6.45;2.03;;;11.80;99.90;;;;;;5023150;28;20052;-82
2022/09/16 05:39:05;;;;;;;10.25;2.20;;;11.90;99.90;;;;;;5043104;28;20041;-84
2022/09/16 05:41:31;;;;;;;7.93;2.03;;;11.80;99.90;;;;;;5041743;28;20041;-83
2022/09/16 05:44:00;;;;;;;8.43;2.55;;;11.80;99.90;;;;;;5015994;28;20496;-83
2022/09/16 05:46:32;;;;;;;4.47;1.83;;;11.90;99.90;;;;;;5036502;28;20063;-83
2022/09/16 05:48:58;;;;;;;6.00;1.90;;;11.90;99.90;;;;;;5036462;28;20489;-85
2022/09/16 05:51:24;;;;;;;6.07;1.88;;;11.90;99.90;;;;;;5038397;28;20040;-81
2022/09/16 05:53:52;;;;;;;7.07;2.10;;;11.90;99.90;;;;;;5044086;28;20045;-83
2022/09/16 05:56:26;;;;;;;5.40;1.88;;;11.90;99.90;;;;;;5022625;28;20937;-81
2022/09/16 05:58:53;;;;;;;6.70;1.83;;;12.00;99.90;;;;;;5020887;28;20527;-81
2022/09/16 06:01:25;;;;;;;8.98;2.17;;;11.90;99.90;;;;;;5017107;28;20172;-81
2022/09/16 06:03:51;;;;;;;6.07;2.03;;;11.90;99.90;;;;;;5034496;28;20053;-83
2022/09/16 06:06:28;;;;;;;6.47;1.83;;;11.90;99.90;;;;;;5041553;28;20431;-81
2022/09/16 06:09:02;;;;;;;7.35;1.80;;;11.90;99.90;;;;;;5022424;28;20115;-82
2022/09/16 06:11:28;;;;;;;7.20;1.90;;;11.80;99.90;;;;;;5022083;28;20531;-81
2022/09/16 06:13:56;;;;;;;7.70;1.92;;;11.80;99.90;;;;;;5042058;28;20037;-83
2022/09/16 06:16:25;;;;;;;;;;;11.90;99.90;;;;;;5016246;28;20073;-81
2022/09/16 06:18:52;;;;;;;10.07;2.20;;;11.90;99.90;;;;;;5035238;28;20444;-81
2022/09/16 06:21:21;;;;;;;6.68;1.60;;;11.90;99.90;;;;;;5041591;28;20524;-81
2022/09/16 06:23:50;;;;;;;8.32;1.80;;;11.90;99.90;;;;;;5023965;28;20044;-82
2022/09/16 06:26:21;;;;;;;7.97;1.88;;;12.00;99.90;;;;;;5031353;28;20124;-82
2022/09/16 06:28:48;;;;;;;8.45;1.92;;;12.00;99.90;;;;;;5035335;28;20483;-81
2022/09/16 06:31:19;;;;;;;9.20;1.70;;;12.10;99.90;;;;;;5038549;28;20405;-81
2022/09/16 06:33:45;;;;;;;8.15;2.05;;;12.20;99.90;;;;;;5024882;28;20773;-84
2022/09/16 06:36:17;;;;;;;7.68;2.00;;;12.30;99.90;;;;;;5023011;28;20466;-82
2022/09/16 06:38:44;;;;;;;6.43;1.50;;;12.30;99.90;;;;;;5021399;28;20487;-78
2022/09/16 06:41:11;;;;;;;9.15;1.90;;;12.50;99.90;;;;;;5018647;28;20041;-82
2022/09/16 06:43:37;;;;;;;8.10;2.03;;;12.50;99.90;;;;;;5041285;28;20041;-80
2022/09/16 06:46:12;;;;;;;9.25;1.88;;;12.60;99.90;;;;;;5021880;28;20084;-81
2022/09/16 06:48:39;;;;;;;8.77;1.98;;;12.60;99.90;;;;;;5042260;28;20045;-83
2022/09/16 06:51:31;;;;;;;10.10;1.80;;;12.60;99.90;;;;;;5028091;28;20480;-85
2022/09/16 06:54:03;;;;;;;10.98;1.88;;;12.60;99.90;;;;;;5046279;28;20049;-88
2022/09/16 06:56:36;;;;;;;9.80;1.88;;;12.60;99.90;;;;;;5051283;28;20055;-85
2022/09/16 06:59:02;;;;;;;7.85;1.92;;;12.70;99.90;;;;;;5024994;28;20048;-85
2022/09/16 07:01:36;;;;;;;14.18;2.22;;;12.60;99.90;;;;;;5030902;28;20297;-84
2022/09/16 07:04:12;;;;;;;8.27;1.60;;;12.60;99.90;;;;;;5055759;28;20083;-84
2022/09/16 07:06:38;;;;;;;10.02;1.85;;;12.60;99.90;;;;;;5052240;28;20053;-78
2022/09/16 07:09:05;;;;;;;7.15;1.30;;;12.60;99.90;;;;;;5054181;28;20077;-82
2022/09/16 07:11:31;;;;;;;9.65;2.10;;;12.60;99.90;;;;;;5043946;28;20088;-82
2022/09/16 07:13:58;;;;;;;12.38;2.40;;;12.60;99.90;;;;;;5047304;28;20051;-79
2022/09/16 07:16:25;;;;;;;;;;;12.70;99.90;;;;;;5047319;28;20754;-76
2022/09/16 07:18:58;;;;;;;8.73;1.85;;;12.70;99.90;;;;;;5044021;28;19928;-80
2022/09/16 07:21:28;;;;;;;9.10;1.88;;;12.70;99.90;;;;;;5020204;28;20720;-78
2022/09/16 07:23:56;;;;;;;10.23;2.10;;;12.80;99.90;;;;;;5026858;28;20114;-78
2022/09/16 07:26:25;;;;;;;12.63;1.98;;;12.90;99.90;;;;;;5027771;28;20059;-79
2022/09/16 07:28:52;;;;;;;9.45;1.75;;;13.00;99.90;;;;;;5044812;28;20045;-76
2022/09/16 07:31:20;;;;;;;10.90;1.95;;;13.00;99.90;;;;;;5050371;28;20036;-73
2022/09/16 07:33:48;;;;;;;11.65;2.05;;;13.10;99.90;;;;;;5035696;28;20051;-78
2022/09/16 07:36:18;;;;;;;9.70;1.92;;;13.20;99.90;;;;;;5041477;28;20504;-87
2022/09/16 07:38:44;;;;;;;11.52;2.50;;;13.30;99.90;;;;;;5025404;28;20126;-85
2022/09/16 07:41:15;;;;;;;10.75;2.35;;;13.40;99.90;;;;;;5043892;28;20558;-80
2022/09/16 07:43:41;;;;;;;10.75;2.00;;;13.40;99.90;;;;;;5025924;28;20049;-82
2022/09/16 07:46:09;;;;;;;14.85;2.95;;;13.50;99.90;;;;;;5024279;28;20202;-78
2022/09/16 07:48:35;;;;;;;8.15;2.20;;;13.60;99.90;;;;;;5042817;28;20045;-79
2022/09/16 07:51:04;;;;;;;8.25;1.70;;;13.70;99.90;;;;;;5047257;28;20041;-78
2022/09/16 07:53:31;;;;;;;8.90;1.80;;;13.70;99.90;;;;;;5046254;28;20041;-79
2022/09/16 07:56:08;;;;;;;9.88;1.80;;;13.80;99.90;;;;;;5044745;28;20037;-78
2022/09/16 07:58:33;;;;;;;;;;;13.90;99.90;;;;;;5044926;28;20045;-72
2022/09/16 08:01:00;;;;;;;8.68;1.80;;;13.90;99.90;;;;;;5045129;28;19935;-74
2022/09/16 08:03:26;;;;;;;9.73;1.80;;;13.90;99.90;;;;;;5042824;28;20270;-74
2022/09/16 08:05:51;;;;;;;10.73;2.10;;;14.00;99.90;;;;;;5045867;28;20472;-72
2022/09/16 08:08:17;;;;;;;9.70;2.08;;;14.00;99.90;;;;;;5026791;28;20048;-72
2022/09/16 08:10:42;;;;;;;8.50;1.92;;;14.10;99.90;;;;;;5044175;28;20047;-73
2022/09/16 08:13:08;;;;;;;11.65;2.22;;;14.10;99.90;;;;;;5027520;28;20072;-74
2022/09/16 08:15:34;;;;;;;12.48;2.00;;;14.20;99.90;;;;;;5023489;28;20077;-76
2022/09/16 08:18:01;;;;;;;14.68;2.28;;;14.20;99.90;;;;;;5020806;28;20045;-75
2022/09/16 08:20:27;;;;;;;11.70;1.90;;;14.30;99.90;;;;;;5020765;28;20045;-82
2022/09/16 08:22:52;;;;;;;12.40;2.10;;;14.40;99.90;;;;;;5042411;28;20045;-79
2022/09/16 08:25:18;;;;;;;9.38;1.42;;;14.40;99.90;;;;;;5026526;28;20058;-73
2022/09/16 08:27:44;;;;;;;10.60;1.60;;;14.40;99.90;;;;;;5035139;28;20542;-81
2022/09/16 08:30:10;;;;;;;9.88;1.90;;;14.50;99.90;;;;;;5024186;28;20033;-81
2022/09/16 08:32:36;;;;;;;10.32;1.75;;;14.50;99.90;;;;;;5047372;28;20053;-81
2022/09/16 08:35:02;;;;;;;11.65;2.05;;;14.60;99.90;;;;;;5042405;28;20043;-78
2022/09/16 08:37:27;;;;;;;7.30;1.80;;;14.70;99.90;;;;;;5041596;28;20738;-74
2022/09/16 08:39:53;;;;;;;10.55;1.80;;;14.70;99.90;;;;;;5022230;28;20137;-72
2022/09/16 08:42:35;;;;;;;11.20;2.17;;;14.80;99.90;;;;;;5026105;28;20527;-73
2022/09/16 08:45:34;;;;;;;12.27;1.90;;;14.90;99.90;;;;;;5045882;28;20045;-73
2022/09/16 08:48:10;;;;;;;11.75;1.80;;;15.00;99.90;;;;;;5045778;28;20053;-73
2022/09/16 08:50:41;;;;;;;13.93;2.03;;;15.10;99.90;;;;;;5028105;28;20056;-73
2022/09/16 08:53:28;;;;;;;11.40;2.33;;;15.10;99.90;;;;;;5041855;28;20056;-73
2022/09/16 08:55:54;;;;;;;10.27;2.22;;;15.10;99.90;;;;;;5028818;28;20051;-73
2022/09/16 08:58:24;;;;;;;8.18;1.83;;;15.10;99.90;;;;;;5040789;28;20037;-75
2022/09/16 09:00:57;;;;;;;12.70;2.20;;;15.20;99.90;;;;;;5026482;28;20452;-74
2022/09/16 09:03:41;;;;;;;12.48;2.30;;;15.30;99.90;;;;;;5032782;28;20141;-77
2022/09/16 09:06:43;;;;;;;10.07;1.77;;;15.40;99.90;;;;;;5021311;28;20395;-74
2022/09/16 09:09:30;;;;;;;10.23;1.90;;;15.50;99.90;;;;;;5030210;28;20053;-79
2022/09/16 09:12:18;;;;;;;10.73;1.85;;;15.50;99.90;;;;;;5039298;28;20041;-76
2022/09/16 09:15:08;;;;;;;15.10;2.08;;;15.40;99.90;;;;;;5043423;28;20037;-76
2022/09/16 09:18:01;;;;;;;10.55;1.98;;;15.50;99.90;;;;;;5026486;28;20037;-74
2022/09/16 09:20:54;;;;;;;10.50;2.42;;;15.50;99.90;;;;;;5015150;28;20099;-75
2022/09/16 09:23:50;;;;;;;16.30;2.33;;;15.50;99.90;;;;;;5038846;28;20040;-73
2022/09/16 09:26:15;;;;;;;11.05;2.15;;;15.50;99.90;;;;;;5021292;28;20095;-78
2022/09/16 09:28:50;;;;;;;10.88;2.58;;;15.40;99.90;;;;;;5034613;28;20049;-77
2022/09/16 09:31:22;;;;;;;14.40;2.65;;;15.40;99.90;;;;;;5044675;28;20037;-78
2022/09/16 09:34:14;;;;;;;10.55;2.03;;;15.40;99.90;;;;;;5043723;28;20658;-81
2022/09/16 09:36:45;;;;;;;11.70;2.33;;;15.40;99.90;;;;;;5027375;28;20071;-76
2022/09/16 09:39:31;;;;;;;10.35;2.08;;;15.50;99.90;;;;;;5046295;28;20041;-80
2022/09/16 09:42:24;;;;;;;10.80;2.20;;;15.60;99.90;;;;;;5023455;28;20487;-75
2022/09/16 09:44:57;;;;;;;11.88;1.88;;;15.70;99.90;;;;;;5022968;28;20456;-80
2022/09/16 09:47:48;;;;;;;12.20;2.15;;;15.70;99.90;;;;;;5008059;28;20136;-79
2022/09/16 09:50:32;;;;;;;10.88;2.22;;;15.70;99.90;;;;;;5021375;28;20050;-77
2022/09/16 09:53:10;;;;;;;11.35;1.90;;;15.80;99.90;;;;;;5024011;28;20599;-77
2022/09/16 09:55:39;;;;;;;9.30;2.15;;;15.80;99.90;;;;;;5022432;28;20084;-85
2022/09/16 09:58:25;;;;;;;7.28;1.80;;;15.90;99.90;;;;;;5021025;28;20099;-82
2022/09/16 10:00:54;;;;;;;11.63;1.98;;;16.00;99.90;;;;;;5006946;28;20041;-81
2022/09/16 10:03:20;;;;;;;7.25;1.60;;;16.10;99.90;;;;;;5005843;28;20045;-79
2022/09/16 10:05:47;;;;;;;11.90;1.90;;;16.10;98.90;;;;;;5000272;28;20053;-78
2022/09/16 10:08:16;;;;;;;12.32;2.28;;;16.20;99.60;;;;;;5006861;28;20037;-76
2022/09/16 10:10:52;;;;;;;9.80;1.98;;;16.20;98.40;;;;;;5007011;28;20053;-78
2022/09/16 10:13:19;;;;;;;14.43;2.13;;;16.30;94.60;;;;;;5001603;28;20440;-75
2022/09/16 10:15:50;;;;;;;10.23;2.30;;;16.30;95.10;;;;;;5008044;28;20052;-80
2022/09/16 10:18:32;;;;;;;10.40;1.88;;;16.40;96.50;;;;;;5005400;28;20042;-75
2022/09/16 10:21:08;;;;;;;8.95;1.80;;;16.50;97.90;;;;;;5002098;28;20049;-76
2022/09/16 10:23:34;;;;;;;7.95;1.60;;;16.60;96.90;;;;;;5007888;28;20065;-77
2022/09/16 10:26:24;;;;;;;9.38;1.90;;;16.50;92.30;;;;;;5003142;28;20137;-78
2022/09/16 10:28:56;;;;;;;9.70;1.60;;;16.60;78.60;;;;;;5004566;28;20236;-78
2022/09/16 10:31:24;;;;;;;9.48;2.08;;;16.60;87.80;;;;;;5002270;28;20049;-80
2022/09/16 10:33:50;;;;;;;9.77;2.17;;;16.60;86.50;;;;;;5001972;28;20122;-80
2022/09/16 10:36:21;;;;;;;10.73;2.00;;;16.60;87.40;;;;;;5003658;28;20120;-75
2022/09/16 10:38:52;;;;;;;11.25;1.98;;;16.60;90.10;;;;;;5003735;28;20132;-79
2022/09/16 10:41:33;;;;;;;7.35;1.60;;;16.70;86.20;;;;;;4999449;28;20053;-76
2022/09/16 10:44:03;;;;;;;7.85;2.20;;;16.80;73.30;;;;;;4999911;28;20168;-78
2022/09/16 10:46:30;;;;;;;9.40;1.67;;;16.90;78.30;;;;;;5014545;28;20072;-84
2022/09/16 10:49:00;;;;;;;8.23;1.90;;;17.00;82.10;;;;;;5000905;28;20052;-82
2022/09/16 10:51:28;;;;;;;9.25;1.45;;;17.00;76.90;;;;;;5000491;28;20084;-77
2022/09/16 10:53:59;;;;;;;6.97;1.83;;;17.00;78.00;;;;;;5023177;28;20485;-82
2022/09/16 10:56:28;;;;;;;6.85;1.63;;;17.00;79.00;;;;;;4998530;28;20052;-81
2022/09/16 10:59:05;;;;;;;10.82;1.75;;;16.90;82.60;;;;;;5015792;28;20427;-79
2022/09/16 11:01:36;;;;;;;5.55;1.20;;;16.70;92.60;;;;;;5041481;28;20051;-81
2022/09/16 11:04:32;;;;;;;7.00;1.30;;;16.40;93.50;;;;;;5035572;28;20228;-85
2022/09/16 11:07:38;;;;;;;6.50;1.33;;;16.10;94.20;;;;;;5020948;28;20084;-84
2022/09/16 11:10:29;;;;;;;6.18;1.05;;;16.00;93.80;;;;;;5025888;28;20080;-86
2022/09/16 11:13:02;;;;;;;11.20;2.00;;;16.00;94.80;;;;;;5039648;28;20082;-85
2022/09/16 11:15:45;;;;;;;10.55;1.50;;;16.10;94.30;;;;;;5019364;28;20049;-87
2022/09/16 11:18:21;;;;;;;13.10;2.13;;;16.20;94.20;;;;;;5038944;28;20041;-85
2022/09/16 11:20:53;;;;;;;13.93;1.80;;;16.40;93.20;;;;;;5025827;28;20044;-85
2022/09/16 11:23:57;;;;;;;13.23;1.83;;;16.40;93.20;;;;;;5020514;28;20048;-82
2022/09/16 11:26:41;;;;;;;9.43;1.70;;;16.50;94.00;;;;;;5041623;28;20140;-80
2022/09/16 11:29:22;;;;;;;10.43;1.95;;;16.70;93.90;;;;;;5017692;28;20072;-83
2022/09/16 11:32:02;;;;;;;10.43;2.00;;;16.80;92.00;;;;;;5045799;28;20114;-87
2022/09/16 11:34:46;;;;;;;9.25;1.77;;;16.90;91.10;;;;;;5050541;28;20110;-86
2022/09/16 11:37:36;;;;;;;12.32;2.30;;;16.90;92.30;;;;;;5049087;28;20040;-84
2022/09/16 11:40:29;;;;;;;11.80;2.10;;;17.00;87.90;;;;;;5050947;28;20052;-80
2022/09/16 11:43:09;;;;;;;12.27;2.28;;;17.10;88.70;;;;;;5030079;28;20125;-82
2022/09/16 11:45:49;;;;;;;11.65;1.80;;;17.20;92.80;;;;;;5050714;28;20071;-80
2022/09/16 11:48:40;;;;;;;8.05;1.63;;;17.40;92.60;;;;;;5041791;28;20052;-83
2022/09/16 11:51:09;;;;;;;5.93;1.45;;;17.40;90.00;;;;;;5024605;28;20055;-81
2022/09/16 11:53:40;;;;;;;10.05;2.22;;;17.30;87.00;;;;;;5023178;28;20039;-82
2022/09/16 11:56:15;;;;;;;9.80;1.83;;;17.30;85.80;;;;;;5039055;28;20094;-82
2022/09/16 11:59:09;;;;;;;8.70;1.55;;;17.40;80.70;;;;;;5027383;28;20051;-83
2022/09/16 12:01:42;;;;;;;11.48;1.60;;;17.40;76.30;;;;;;5032013;28;20060;-81
2022/09/16 12:04:20;;;;;;;9.68;1.75;;;17.40;78.10;;;;;;5020625;28;20596;-83
2022/09/16 12:07:25;;;;;;;7.22;1.55;;;17.40;74.20;;;;;;5024202;28;20079;-83
2022/09/16 12:10:03;;;;;;;9.95;1.65;;;17.40;66.80;;;;;;4983718;28;20038;-84
2022/09/16 12:12:39;;;;;;;7.63;1.30;;;17.50;70.00;;;;;;5041512;28;20060;-80
2022/09/16 12:15:18;;;;;;;4.15;1.40;;;17.40;69.80;;;;;;5042061;28;20037;-84
2022/09/16 12:17:56;;;;;;;6.78;1.50;;;17.50;71.80;;;;;;5043649;28;20098;-82
2022/09/16 12:20:35;;;;;;;11.52;1.90;;;17.60;72.90;;;;;;5038491;28;20041;-84
2022/09/16 12:23:19;;;;;;;9.05;1.80;;;17.50;91.70;;;;;;5023015;28;20057;-84
2022/09/16 12:26:10;;;;;;;5.70;1.20;;;17.00;94.10;;;;;;5028747;28;20590;-79
2022/09/16 12:28:58;;;;;;;5.70;1.35;;;16.40;99.70;;;;;;5043522;28;20144;-76
2022/09/16 12:31:42;;;;;;;5.70;1.15;;;16.00;99.90;;;;;;5025028;28;20098;-83
2022/09/16 12:34:15;;;;;;;6.35;1.20;;;15.70;99.90;;;;;;5034494;28;20130;-77
2022/09/16 12:36:51;;;;;;;6.63;1.33;;;15.60;99.90;;;;;;5045140;28;20472;-79
2022/09/16 12:39:16;;;;;;;7.50;1.60;;;15.70;99.90;;;;;;5045881;28;20134;-79
2022/09/16 12:42:05;;;;;;;7.40;1.13;;;15.80;99.90;;;;;;5043614;28;20064;-82
2022/09/16 12:45:09;;;;;;;7.47;1.50;;;16.00;99.90;;;;;;5014575;28;20792;-81
2022/09/16 12:48:01;;;;;;;7.82;1.60;;;16.20;99.90;;;;;;5043109;28;20069;-88
2022/09/16 12:50:45;;;;;;;8.00;1.75;;;16.30;99.90;;;;;;5019396;28;20057;-84
2022/09/16 12:53:49;;;;;;;8.13;1.55;;;16.30;99.90;;;;;;5042486;28;20045;-81
2022/09/16 12:56:52;;;;;;;7.53;1.50;;;15.80;99.90;;;;;;5043874;28;20063;-82
2022/09/16 12:59:50;;;;;;;7.38;1.48;;;15.40;99.90;;;;;;5041787;28;20107;-81
2022/09/16 13:02:18;;;;;;;7.43;1.58;;;15.10;99.90;;;;;;5006730;28;20156;-82
2022/09/16 13:04:48;;;;;;;6.85;1.50;;;15.00;99.90;;;;;;5024904;28;20121;-81
2022/09/16 13:07:35;;;;;;;6.38;1.45;;;15.10;99.90;;;;;;5045042;28;20072;-83
2022/09/16 13:10:17;;;;;;;7.63;1.30;;;15.20;99.90;;;;;;5024098;28;20056;-82
2022/09/16 13:12:53;;;;;;;5.18;1.10;;;15.30;99.90;;;;;;5040287;28;20037;-79
2022/09/16 13:15:36;;;;;;;5.72;1.10;;;15.50;99.90;;;;;;5033943;28;20049;-85
2022/09/16 13:18:12;;;;;;;4.68;1.10;;;15.70;99.90;;;;;;5041210;28;20393;-83
2022/09/16 13:20:57;;;;;;;5.90;1.10;;;15.90;99.90;;;;;;5042103;28;20469;-87